sensor_id;sensor_type;location;lat;lon;timestamp;P1;durP1;ratioP1;P2;durP2;ratioP2
12373;SDS011;6251;51.762;8.660;2023-01-16T05:07:39;0.90;;;0.90;;
12373;SDS011;6251;51.762;8.660;2023-01-16T05:17:39;2.03;;;0.73;;
12373;SDS011;6251;51.762;8.660;2023-01-16T05:27:40;1.40;;;0.87;;
12373;SDS011;6251;51.762;8.660;2023-01-16T05:37:41;0.80;;;0.80;;
12373;SDS011;6251;51.762;8.660;2023-01-16T05:47:42;1.20;;;1.03;;
12373;SDS011;6251;51.762;8.660;2023-01-16T05:57:44;0.77;;;0.77;;
12373;SDS011;6251;51.762;8.660;2023-01-16T06:18:29;1.10;;;1.00;;
12373;SDS011;6251;51.762;8.660;2023-01-16T06:28:29;1.53;;;1.37;;
12373;SDS011;6251;51.762;8.660;2023-01-16T06:38:30;6.67;;;3.20;;
12373;SDS011;6251;51.762;8.660;2023-01-16T06:48:31;2.17;;;1.40;;
12373;SDS011;6251;51.762;8.660;2023-01-16T06:58:31;2.07;;;1.20;;
12373;SDS011;6251;51.762;8.660;2023-01-16T07:08:32;4.93;;;1.42;;
12373;SDS011;6251;51.762;8.660;2023-01-16T07:18:33;3.00;;;2.00;;
12373;SDS011;6251;51.762;8.660;2023-01-16T07:28:52;2.50;;;2.30;;
12373;SDS011;6251;51.762;8.660;2023-01-16T07:38:55;2.40;;;2.00;;
12373;SDS011;6251;51.762;8.660;2023-01-16T07:48:56;2.20;;;2.00;;
12373;SDS011;6251;51.762;8.660;2023-01-16T07:58:56;2.87;;;2.60;;
12373;SDS011;6251;51.762;8.660;2023-01-16T08:08:57;3.37;;;2.30;;
12373;SDS011;6251;51.762;8.660;2023-01-16T08:18:58;3.77;;;2.10;;
12373;SDS011;6251;51.762;8.660;2023-01-16T08:28:58;4.80;;;3.00;;
12373;SDS011;6251;51.762;8.660;2023-01-16T08:39:02;5.15;;;2.05;;
12373;SDS011;6251;51.762;8.660;2023-01-16T08:49:03;2.53;;;2.17;;
12373;SDS011;6251;51.762;8.660;2023-01-16T08:59:23;2.77;;;2.40;;
12373;SDS011;6251;51.762;8.660;2023-01-16T09:09:24;3.13;;;2.40;;
12373;SDS011;6251;51.762;8.660;2023-01-16T09:19:25;3.40;;;2.15;;
12373;SDS011;6251;51.762;8.660;2023-01-16T09:29:25;2.00;;;1.90;;
12373;SDS011;6251;51.762;8.660;2023-01-16T09:39:26;1.80;;;1.70;;
12373;SDS011;6251;51.762;8.660;2023-01-16T09:49:29;1.90;;;1.43;;
12373;SDS011;6251;51.762;8.660;2023-01-16T09:59:49;2.47;;;1.50;;
12373;SDS011;6251;51.762;8.660;2023-01-16T10:20:25;2.77;;;1.33;;
12373;SDS011;6251;51.762;8.660;2023-01-16T10:41:25;2.30;;;1.10;;
12373;SDS011;6251;51.762;8.660;2023-01-16T10:51:58;3.25;;;0.90;;
12373;SDS011;6251;51.762;8.660;2023-01-16T11:02:03;3.33;;;1.10;;
12373;SDS011;6251;51.762;8.660;2023-01-16T11:12:30;1.62;;;1.00;;
12373;SDS011;6251;51.762;8.660;2023-01-16T11:33:21;1.75;;;1.00;;
12373;SDS011;6251;51.762;8.660;2023-01-16T11:43:25;1.60;;;0.93;;
12373;SDS011;6251;51.762;8.660;2023-01-16T11:53:46;1.50;;;0.90;;
12373;SDS011;6251;51.762;8.660;2023-01-16T12:14:08;1.25;;;0.88;;
12373;SDS011;6251;51.762;8.660;2023-01-16T12:24:30;1.90;;;0.85;;
12373;SDS011;6251;51.762;8.660;2023-01-16T12:55:41;0.77;;;0.77;;
12373;SDS011;6251;51.762;8.660;2023-01-16T13:05:55;0.93;;;0.93;;
12373;SDS011;6251;51.762;8.660;2023-01-16T13:26:17;0.55;;;0.55;;
12373;SDS011;6251;51.762;8.660;2023-01-16T13:47:31;0.60;;;0.60;;
12373;SDS011;6251;51.762;8.660;2023-01-16T13:57:29;0.70;;;0.57;;
12373;SDS011;6251;51.762;8.660;2023-01-16T14:28:55;0.70;;;0.70;;
12373;SDS011;6251;51.762;8.660;2023-01-16T14:38:56;1.10;;;0.82;;
12373;SDS011;6251;51.762;8.660;2023-01-16T14:48:58;0.93;;;0.88;;
12373;SDS011;6251;51.762;8.660;2023-01-16T15:10:16;1.27;;;1.27;;
12373;SDS011;6251;51.762;8.660;2023-01-16T15:20:27;1.55;;;1.48;;
12373;SDS011;6251;51.762;8.660;2023-01-16T15:30:47;1.53;;;1.50;;
12373;SDS011;6251;51.762;8.660;2023-01-16T15:40:51;1.20;;;1.20;;
12373;SDS011;6251;51.762;8.660;2023-01-16T15:50:55;2.20;;;1.50;;
12373;SDS011;6251;51.762;8.660;2023-01-16T16:01:01;1.15;;;1.08;;
12373;SDS011;6251;51.762;8.660;2023-01-16T16:11:06;1.50;;;1.50;;
12373;SDS011;6251;51.762;8.660;2023-01-16T16:21:47;1.70;;;1.40;;
12373;SDS011;6251;51.762;8.660;2023-01-16T16:32:11;1.40;;;1.30;;
12373;SDS011;6251;51.762;8.660;2023-01-16T16:52:28;2.87;;;1.90;;
12373;SDS011;6251;51.762;8.660;2023-01-16T17:02:31;1.70;;;1.60;;
12373;SDS011;6251;51.762;8.660;2023-01-16T17:22:39;2.97;;;1.70;;
12373;SDS011;6251;51.762;8.660;2023-01-16T17:32:40;1.60;;;1.50;;
12373;SDS011;6251;51.762;8.660;2023-01-16T17:42:41;1.40;;;1.40;;
12373;SDS011;6251;51.762;8.660;2023-01-16T17:53:00;1.70;;;1.60;;
12373;SDS011;6251;51.762;8.660;2023-01-16T18:03:02;2.93;;;1.60;;
12373;SDS011;6251;51.762;8.660;2023-01-16T18:13:07;1.10;;;1.10;;
12373;SDS011;6251;51.762;8.660;2023-01-16T18:23:28;1.10;;;1.10;;
12373;SDS011;6251;51.762;8.660;2023-01-16T18:33:28;0.90;;;0.90;;
12373;SDS011;6251;51.762;8.660;2023-01-16T18:43:29;1.27;;;1.27;;
12373;SDS011;6251;51.762;8.660;2023-01-16T18:53:49;3.30;;;3.10;;
12373;SDS011;6251;51.762;8.660;2023-01-16T19:04:10;1.30;;;1.30;;
12373;SDS011;6251;51.762;8.660;2023-01-16T19:14:12;1.30;;;1.30;;
12373;SDS011;6251;51.762;8.660;2023-01-16T19:24:14;2.23;;;2.03;;
12373;SDS011;6251;51.762;8.660;2023-01-16T19:34:15;2.53;;;2.03;;
12373;SDS011;6251;51.762;8.660;2023-01-16T19:44:16;2.70;;;2.37;;
12373;SDS011;6251;51.762;8.660;2023-01-16T19:54:35;3.27;;;2.60;;
12373;SDS011;6251;51.762;8.660;2023-01-16T20:04:37;1.40;;;1.40;;
12373;SDS011;6251;51.762;8.660;2023-01-16T20:14:39;1.77;;;1.67;;
12373;SDS011;6251;51.762;8.660;2023-01-16T20:24:41;1.00;;;1.00;;
12373;SDS011;6251;51.762;8.660;2023-01-16T20:34:41;1.12;;;1.12;;
12373;SDS011;6251;51.762;8.660;2023-01-16T20:44:42;1.10;;;1.10;;
12373;SDS011;6251;51.762;8.660;2023-01-16T20:55:01;1.57;;;1.47;;
12373;SDS011;6251;51.762;8.660;2023-01-16T21:05:02;1.27;;;1.27;;
12373;SDS011;6251;51.762;8.660;2023-01-16T21:15:03;1.70;;;1.60;;
12373;SDS011;6251;51.762;8.660;2023-01-16T21:25:04;2.10;;;2.00;;
12373;SDS011;6251;51.762;8.660;2023-01-16T21:35:05;2.40;;;2.20;;
12373;SDS011;6251;51.762;8.660;2023-01-16T21:45:06;2.90;;;2.70;;
12373;SDS011;6251;51.762;8.660;2023-01-16T21:55:28;3.27;;;3.07;;
12373;SDS011;6251;51.762;8.660;2023-01-16T22:05:28;3.83;;;3.53;;
